SU43 / VQ-BEH 7700 Squawk Report (4th of April, 2020)

Aircraft A320 Reg No. VQ-BEH Age 10 years old
Model A320 Jet engines 2 First flight 24-11-09
Registered 14-12-09 Rollout 11-09 Delivered 14-12-09
Construction No. 4133 Line No. N/A Series 214
ADSHEX 424945 Airline name Aeroflot Russian Airlines Owner BOC Aviation
Airfield based Moscow-Sheremetyevo~Moscow~RA First tracked N/A

Flight history for VQ-BEH

Route Flight No Date Playback
Ufa (UFA) - Sheremetyevo (SVO) SU1233 2020-05-29 16:17:00
Sheremetyevo (SVO) - Ufa (UFA) SU1232 2020-05-29 14:26:00
Pulkovo (LED) - Sheremetyevo (SVO) SU31 2020-05-29 06:36:00
Sheremetyevo (SVO) - Pulkovo (LED) SU30 2020-05-28 18:27:00
Pulkovo (LED) - Sheremetyevo (SVO) SU21 2020-05-28 14:02:00
Sheremetyevo (SVO) - Pulkovo (LED) SU20 2020-05-28 11:30:00
Pulkovo (LED) - Sheremetyevo (SVO) SU31 2020-05-28 06:42:00
Sheremetyevo (SVO) - Pulkovo (LED) SU30 2020-05-27 18:32:00
Pulkovo (LED) - Sheremetyevo (SVO) SU21 2020-05-27 17:21:00
Sheremetyevo (SVO) - Pulkovo (LED) SU20 2020-05-27 11:37:00
Tolmachevo (OVB) - Sheremetyevo (SVO) SU1307 2020-05-27 10:34:00
Sheremetyevo (SVO) - Tolmachevo (OVB) SU1306 2020-05-27 01:48:00
Balandino (CEK) - Sheremetyevo (SVO) SU1423 2020-05-26 22:06:00
Sheremetyevo (SVO) - Balandino (CEK) SU1422 2020-05-26 15:43:00
Uytash (MCX) - Sheremetyevo (SVO) SU1053 2020-05-25 11:30:00
Sheremetyevo (SVO) - Uytash (MCX) SU1052 2020-05-25 09:19:00
Rostov-on-Don (ROV) - Sheremetyevo (SVO) SU1167 2020-05-23 12:13:00
Sheremetyevo (SVO) - Rostov-on-Don (ROV) SU1166 2020-05-23 10:38:00
Uytash (MCX) - Sheremetyevo (SVO) SU1059 2020-05-22 18:22:00
Sheremetyevo (SVO) - Uytash (MCX) SU1058 2020-05-22 15:58:00
Time Lat Lon Altitude Heading Speed Vertical Rate
2020-04-04 13:58:55 GMT 55.981056 37.417629 0 255 0
2020-04-04 13:58:40 GMT 55.980976 37.417503 0 255 0
2020-04-04 13:58:30 GMT 55.980984 37.417500 0 255 0
2020-04-04 13:58:25 GMT 55.980976 37.417503 0 255 0
2020-04-04 13:56:39 GMT 55.981010 37.417740 0 255 2
2020-04-04 13:56:15 GMT 55.981030 37.417850 0 255 6
2020-04-04 13:56:12 GMT 55.981064 37.418060 0 253 9
2020-04-04 13:56:01 GMT 55.981178 37.418728 0 275 8
2020-04-04 13:55:49 GMT 55.981030 37.419373 0 343 9
2020-04-04 13:54:23 GMT 55.976295 37.418552 0 75 25
2020-04-04 13:54:09 GMT 55.975834 37.415417 0 75 28
2020-04-04 13:53:57 GMT 55.975433 37.412773 0 75 26
2020-04-04 13:53:48 GMT 55.975178 37.411064 0 75 29
2020-04-04 13:53:37 GMT 55.974831 37.408684 0 75 29
2020-04-04 13:53:27 GMT 55.974483 37.406406 0 75 28
2020-04-04 13:53:12 GMT 55.973934 37.402699 0 75 30
2020-04-04 13:53:07 GMT 55.973774 37.401665 0 75 30
2020-04-04 13:52:56 GMT 55.973396 37.399178 0 75 30
2020-04-04 13:52:45 GMT 55.973019 37.396587 0 75 30
2020-04-04 13:52:34 GMT 55.972584 37.393715 0 73 29
2020-04-04 13:52:26 GMT 55.972355 37.392178 0 75 29
2020-04-04 13:52:16 GMT 55.972000 37.389782 0 75 30
2020-04-04 13:52:06 GMT 55.971642 37.387398 0 75 27
2020-04-04 13:51:43 GMT 55.970966 37.382786 0 78 26
2020-04-04 13:51:15 GMT 55.970833 37.378296 0 115 16
2020-04-04 13:51:04 GMT 55.971222 37.376862 0 118 24
2020-04-04 13:50:54 GMT 55.971790 37.374886 0 115 28
2020-04-04 13:50:36 GMT 55.972794 37.371284 0 115 26
2020-04-04 13:50:32 GMT 55.972984 37.370640 0 115 25
2020-04-04 13:50:24 GMT 55.973457 37.368923 0 118 23
2020-04-04 13:50:02 GMT 55.974335 37.365814 0 123 18
2020-04-04 13:49:52 GMT 55.974865 37.364651 0 137 18
2020-04-04 13:49:41 GMT 55.975674 37.363647 0 157 22
2020-04-04 13:49:30 GMT 55.976807 37.363003 0 165 27
2020-04-04 13:49:22 GMT 55.977779 37.362545 0 165 27
2020-04-04 13:49:09 GMT 55.979290 37.361816 0 165 27
2020-04-04 13:49:02 GMT 55.980206 37.361370 0 165 27
2020-04-04 13:48:51 GMT 55.981430 37.360809 0 165 25
2020-04-04 13:48:38 GMT 55.982723 37.360172 0 165 18
2020-04-04 13:48:30 GMT 55.983307 37.359905 0 168 13
2020-04-04 13:48:18 GMT 55.983948 37.359653 0 81 10
2020-04-04 13:48:07 GMT 55.983742 37.359257 0 306 10
2020-04-04 13:48:00 GMT 55.983547 37.359756 0 334 12
2020-04-04 13:47:50 GMT 55.982918 37.360111 0 345 17
2020-04-04 13:47:40 GMT 55.982174 37.360470 0 345 15
2020-04-04 13:47:29 GMT 55.981556 37.360767 0 343 13
2020-04-04 13:47:19 GMT 55.981022 37.361004 0 11 11
2020-04-04 13:47:06 GMT 55.980503 37.360508 0 42 11
2020-04-04 13:46:58 GMT 55.980217 37.360050 0 16 10
2020-04-04 13:46:48 GMT 55.979759 37.360027 0 345 5
2020-04-04 13:46:23 GMT 55.979626 37.360081 0 345 0
2020-04-04 13:46:14 GMT 55.979622 37.360092 0 345 0
2020-04-04 13:46:04 GMT 55.979626 37.360081 0 345 0
2020-04-04 13:45:53 GMT 55.979622 37.360092 0 345 0
2020-04-04 13:45:24 GMT 55.979626 37.360081 0 345 0
2020-04-04 13:44:58 GMT 55.979622 37.360092 0 345 0
2020-04-04 13:44:53 GMT 55.979626 37.360081 0 345 0
2020-04-04 13:44:44 GMT 55.979622 37.360092 0 345 0
2020-04-04 13:44:33 GMT 55.979626 37.360081 0 345 0
2020-04-04 13:44:14 GMT 55.979622 37.360092 0 345 0
We lost coverage of the aircraft here for a total of 10 minutes
2020-04-04 13:34:00 GMT 55.979626 37.360081 0 0
2020-04-04 13:33:50 GMT 55.979622 37.360092 0 0
2020-04-04 13:33:09 GMT 55.979626 37.360081 0 0
2020-04-04 13:32:55 GMT 55.979622 37.360092 0 0
2020-04-04 13:32:35 GMT 55.979626 37.360081 0 0
2020-04-04 13:32:26 GMT 55.979622 37.360092 0 0
2020-04-04 13:31:54 GMT 55.979626 37.360081 0 0
2020-04-04 13:31:34 GMT 55.979622 37.360092 0 0
2020-04-04 13:30:54 GMT 55.979626 37.360081 0 0
2020-04-04 13:30:44 GMT 55.979622 37.360092 0 0
2020-04-04 13:30:34 GMT 55.979626 37.360081 0 0
2020-04-04 13:30:25 GMT 55.979622 37.360092 0 0
2020-04-04 13:29:54 GMT 55.979626 37.360081 0 0
2020-04-04 13:29:45 GMT 55.979622 37.360092 0 0
2020-04-04 13:29:29 GMT 55.979626 37.360081 0 0
2020-04-04 13:29:20 GMT 55.979622 37.360092 0 0
2020-04-04 13:29:09 GMT 55.979626 37.360081 0 0
2020-04-04 13:29:00 GMT 55.979622 37.360092 0 0
2020-04-04 13:28:51 GMT 55.979626 37.360081 0 0
2020-04-04 13:28:30 GMT 55.979622 37.360092 0 0
2020-04-04 13:28:11 GMT 55.979626 37.360081 0 0
2020-04-04 13:27:55 GMT 55.979622 37.360092 0 0
2020-04-04 13:27:20 GMT 55.979626 37.360081 0 0
2020-04-04 13:26:50 GMT 55.979622 37.360092 0 0
2020-04-04 13:26:39 GMT 55.979626 37.360081 0 0
2020-04-04 13:26:14 GMT 55.979622 37.360092 0 0
2020-04-04 13:25:44 GMT 55.979626 37.360081 0 0
2020-04-04 13:25:24 GMT 55.979622 37.360092 0 0
2020-04-04 13:25:16 GMT 55.979626 37.360081 0 0
2020-04-04 13:24:45 GMT 55.979622 37.360092 0 0
2020-04-04 13:24:36 GMT 55.979626 37.360081 0 0
2020-04-04 13:24:25 GMT 55.979622 37.360092 0 0
2020-04-04 13:24:15 GMT 55.979626 37.360081 0 0
2020-04-04 13:24:05 GMT 55.979622 37.360092 0 0
2020-04-04 13:23:01 GMT 55.979622 37.360092 0 0
2020-04-04 13:22:32 GMT 55.979626 37.360081 0 0
2020-04-04 13:22:16 GMT 55.979622 37.360092 0 0
2020-04-04 13:22:11 GMT 55.979626 37.360081 0 0
2020-04-04 13:22:01 GMT 55.979622 37.360092 0 0
2020-04-04 13:21:41 GMT 55.979626 37.360081 0 0
2020-04-04 13:21:31 GMT 55.979622 37.360092 0 0
2020-04-04 13:21:11 GMT 55.979626 37.360081 0 0
2020-04-04 13:20:21 GMT 55.979622 37.360092 0 0
2020-04-04 13:20:10 GMT 55.979626 37.360081 0 0
2020-04-04 13:20:00 GMT 55.979622 37.360092 0 0
2020-04-04 13:19:50 GMT 55.979626 37.360081 0 0
2020-04-04 13:19:30 GMT 55.979622 37.360092 0 0
2020-04-04 13:19:05 GMT 55.979626 37.360081 0 0
2020-04-04 13:18:45 GMT 55.979622 37.360092 0 0
2020-04-04 13:18:35 GMT 55.979626 37.360081 0 0
2020-04-04 13:18:25 GMT 55.979622 37.360092 0 0
2020-04-04 13:17:04 GMT 55.979626 37.360104 0 0
2020-04-04 13:16:39 GMT 55.979622 37.360092 0 0
2020-04-04 13:15:59 GMT 55.979626 37.360104 0 0
2020-04-04 13:15:43 GMT 55.979633 37.360092 0 0
2020-04-04 13:15:04 GMT 55.979626 37.360104 0 0
2020-04-04 13:15:00 GMT 55.979633 37.360092 0 0
2020-04-04 13:13:58 GMT 55.979626 37.360104 0 0
2020-04-04 13:12:49 GMT 55.979633 37.360092 0 0
2020-04-04 13:12:29 GMT 55.979637 37.360104 0 0
2020-04-04 13:12:09 GMT 55.979633 37.360092 0 0
2020-04-04 13:11:59 GMT 55.979637 37.360104 0 0
2020-04-04 13:11:14 GMT 55.979633 37.360092 0 0
2020-04-04 13:11:04 GMT 55.979637 37.360104 0 0
2020-04-04 13:10:24 GMT 55.979633 37.360092 0 0
2020-04-04 13:10:09 GMT 55.979637 37.360104 0 0
2020-04-04 13:09:34 GMT 55.979626 37.360104 0 0
2020-04-04 13:09:14 GMT 55.979633 37.360092 0 0
2020-04-04 13:08:44 GMT 55.979637 37.360104 0 0
2020-04-04 13:08:19 GMT 55.979633 37.360092 0 0
2020-04-04 13:08:10 GMT 55.979637 37.360104 0 0
2020-04-04 13:07:51 GMT 55.979633 37.360092 0 0
2020-04-04 13:07:30 GMT 55.979637 37.360104 0 0
2020-04-04 13:07:06 GMT 55.979633 37.360092 0 0
2020-04-04 13:06:50 GMT 55.979626 37.360104 0 0
2020-04-04 13:06:35 GMT 55.979633 37.360092 0 0
2020-04-04 13:06:20 GMT 55.979626 37.360104 0 0
2020-04-04 13:06:05 GMT 55.979637 37.360104 0 0
2020-04-04 13:06:00 GMT 55.979633 37.360092 0 0
2020-04-04 13:05:51 GMT 55.979637 37.360104 0 0
2020-04-04 13:05:35 GMT 55.979633 37.360092 0 0
2020-04-04 13:05:30 GMT 55.979637 37.360104 0 0
2020-04-04 13:04:44 GMT 55.979626 37.360104 0 0
2020-04-04 13:04:20 GMT 55.979633 37.360092 0 0
2020-04-04 13:04:16 GMT 55.979626 37.360104 0 0
2020-04-04 13:03:54 GMT 55.979626 37.360081 0 0
2020-04-04 13:03:36 GMT 55.979633 37.360092 0 0
2020-04-04 13:03:25 GMT 55.979626 37.360081 0 0
2020-04-04 13:03:05 GMT 55.979633 37.360092 0 0
2020-04-04 13:02:56 GMT 55.979622 37.360092 0 0
2020-04-04 13:02:35 GMT 55.979626 37.360081 0 0
2020-04-04 13:02:05 GMT 55.979622 37.360092 0 0
2020-04-04 13:01:05 GMT 55.979626 37.360081 0 0
2020-04-04 13:01:00 GMT 55.979622 37.360092 0 0
2020-04-04 13:00:41 GMT 55.979626 37.360104 0 0
2020-04-04 13:00:15 GMT 55.979622 37.360092 0 0
2020-04-04 13:00:10 GMT 55.979626 37.360104 0 0
2020-04-04 13:00:01 GMT 55.979622 37.360092 0 0
2020-04-04 12:59:35 GMT 55.979626 37.360104 0 0
2020-04-04 12:59:10 GMT 55.979622 37.360092 0 0
2020-04-04 12:58:55 GMT 55.979626 37.360104 0 0
2020-04-04 12:58:41 GMT 55.979622 37.360092 0 0
2020-04-04 12:58:29 GMT 55.979626 37.360104 0 0
2020-04-04 12:58:19 GMT 55.979622 37.360092 0 0
2020-04-04 12:57:59 GMT 55.979626 37.360104 0 0
2020-04-04 12:57:34 GMT 55.979622 37.360092 0 0
We lost coverage of the aircraft here for a total of 31 minutes
2020-04-04 12:26:42 GMT 55.979633 37.360092 0 345 0
2020-04-04 12:26:33 GMT 55.979626 37.360104 0 345 0
2020-04-04 12:25:23 GMT 55.979633 37.360092 0 345 0
2020-04-04 12:24:43 GMT 55.979626 37.360104 0 345 0
2020-04-04 12:23:52 GMT 55.979622 37.360092 0 345 0
2020-04-04 12:23:48 GMT 55.979626 37.360104 0 345 0
2020-04-04 12:23:33 GMT 55.979626 37.360081 0 345 0
2020-04-04 12:23:23 GMT 55.979626 37.360104 0 345 0
2020-04-04 12:22:58 GMT 55.979633 37.360092 0 345 0
2020-04-04 12:22:48 GMT 55.979626 37.360104 0 345 0
2020-04-04 12:22:07 GMT 55.979633 37.360092 0 345 0
2020-04-04 12:21:47 GMT 55.979626 37.360104 0 345 0
2020-04-04 12:21:38 GMT 55.979626 37.360081 0 345 0
2020-04-04 12:21:27 GMT 55.979626 37.360104 0 345 0
2020-04-04 12:20:13 GMT 55.979626 37.360104 0 345 0
2020-04-04 12:19:52 GMT 55.979633 37.360092 0 345 0
2020-04-04 12:18:57 GMT 55.979626 37.360104 0 345 0
2020-04-04 12:18:21 GMT 55.979633 37.360092 0 345 0
2020-04-04 12:17:51 GMT 55.979626 37.360104 0 345 0
2020-04-04 12:17:41 GMT 55.979633 37.360092 0 345 0
2020-04-04 12:17:23 GMT 55.979626 37.360104 0 345 0
We lost coverage of the aircraft here for a total of 8 minutes
2020-04-04 12:09:42 GMT 55.970116 37.386990 0 343 14 0
2020-04-04 12:09:19 GMT 55.968708 37.387653 0 345 14 0
2020-04-04 12:09:00 GMT 55.967628 37.388222 0 298 12 0
2020-04-04 12:08:47 GMT 55.967625 37.389587 0 253 27 0
2020-04-04 12:08:38 GMT 55.967983 37.391991 0 253 36 0
2020-04-04 12:08:23 GMT 55.968601 37.396107 0 255 40 0
2020-04-04 12:08:20 GMT 55.968815 37.397503 0 255 42 0
2020-04-04 12:08:09 GMT 55.969334 37.401039 0 255 47 0
2020-04-04 12:07:58 GMT 55.969940 37.405033 0 255 53 0
2020-04-04 12:07:48 GMT 55.970661 37.409843 0 255 61 0
2020-04-04 12:07:39 GMT 55.971348 37.414459 0 255 69 0
2020-04-04 12:07:10 GMT 55.974243 37.433750 575 256 119 -256
2020-04-04 12:07:06 GMT 55.974838 37.437828 575 256 122 -256
2020-04-04 12:06:55 GMT 55.976395 37.448399 725 256 121 -704
2020-04-04 12:06:48 GMT 55.977585 37.456303 800 255 120 -512
2020-04-04 12:06:37 GMT 55.979050 37.466042 900 256 116 -448
2020-04-04 12:06:26 GMT 55.980515 37.476196 1,025 256 118 -768
2020-04-04 12:06:19 GMT 55.981476 37.482689 1,100 255 118 -640
2020-04-04 12:06:16 GMT 55.981998 37.486210 1,150 255 118 -640
2020-04-04 12:06:12 GMT 55.982483 37.489429 1,175 256 115 -640
2020-04-04 12:06:09 GMT 55.983719 37.497753 1,525 256 116 -640
2020-04-04 12:06:04 GMT 55.984131 37.500500 1,300 256 115 -704
2020-04-04 12:06:01 GMT 55.984131 37.500500 1,300 256 116 -640
2020-04-04 12:05:56 GMT 55.984745 37.504578 1,350 256 116 -640
2020-04-04 12:05:53 GMT 55.985306 37.508354 1,400 256 115 -640
2020-04-04 12:05:47 GMT 55.986095 37.513504 1,450 256 115 -704
2020-04-04 12:05:44 GMT 55.986465 37.515980 1,475 255 115 -576
2020-04-04 12:05:41 GMT 55.986923 37.519226 1,525 255 114 -576
2020-04-04 12:05:34 GMT 55.987839 37.525051 1,575 256 115 -640
2020-04-04 12:05:30 GMT 55.988281 37.528179 1,625 256 114 -640
2020-04-04 12:05:26 GMT 55.988934 37.532642 1,650 255 114 -512
2020-04-04 12:05:20 GMT 55.989761 37.538036 1,725 256 116 -768
2020-04-04 12:05:13 GMT 55.990658 37.543976 1,825 256 118 -896
2020-04-04 12:05:10 GMT 55.991135 37.547359 1,850 256 118 -832
2020-04-04 12:05:05 GMT 55.991913 37.552643 1,925 256 120 -640
2020-04-04 12:05:02 GMT 55.992100 37.554016 1,950 256 121 -576
2020-04-04 12:04:59 GMT 55.992599 37.557430 2,000 256 129 -576
2020-04-04 12:04:54 GMT 55.994110 37.567749 2,025 256 131 -512
2020-04-04 12:04:50 GMT 55.994110 37.567749 2,050 255 134 -640
2020-04-04 12:04:47 GMT 55.994381 37.569550 2,075 255 134 -576
2020-04-04 12:04:44 GMT 55.995079 37.574184 2,125 255 138 -576
2020-04-04 12:04:41 GMT 55.995453 37.576759 2,150 256 153 -1088
2020-04-04 12:04:37 GMT 55.996124 37.581230 2,200 256 153 -1152
2020-04-04 12:04:33 GMT 55.996895 37.586288 2,250 256 147 -832
2020-04-04 12:04:28 GMT 55.997589 37.591305 2,400 256 153 -1088
2020-04-04 12:04:22 GMT 55.998619 37.598305 2,400 256 153 -1152
2020-04-04 12:04:18 GMT 55.999374 37.603455 2,500 256 153 -1024
2020-04-04 12:04:14 GMT 56.000153 37.608616 2,550 256 154 -704
2020-04-04 12:04:09 GMT 56.001068 37.614941 2,600 256 160 -64
2020-04-04 12:04:06 GMT 56.001526 37.618103 2,600 252 161 0
2020-04-04 12:04:02 GMT 56.002483 37.624226 2,600 255 162 -64
2020-04-04 12:03:52 GMT 56.004532 37.637360 2,600 249 161 64
2020-04-04 12:03:45 GMT 56.005966 37.645901 2,600 248 162 -64
2020-04-04 12:03:41 GMT 56.007568 37.654140 2,600 248 162 -64
2020-04-04 12:03:36 GMT 56.008438 37.657871 2,600 245 162 0
2020-04-04 12:03:33 GMT 56.009090 37.660446 2,600 242 163 0
2020-04-04 12:03:26 GMT 56.011414 37.667873 2,575 236 164 0
2020-04-04 12:03:23 GMT 56.013187 37.672207 2,600 225 168 -64
2020-04-04 12:03:16 GMT 56.017181 37.678444 2,600 207 174 64
2020-04-04 12:03:12 GMT 56.019707 37.680702 2,600 197 180 192
2020-04-04 12:03:07 GMT 56.023453 37.682022 2,600 179 188 64
2020-04-04 12:03:04 GMT 56.028809 37.681690 2,575 179 188 0
2020-04-04 12:03:01 GMT 56.028809 37.681690 2,600 174 190 192
2020-04-04 12:02:54 GMT 56.035629 37.680443 2,625 174 189 -192
2020-04-04 12:02:51 GMT 56.037117 37.680187 2,625 174 190 0
2020-04-04 12:02:45 GMT 56.043076 37.679157 2,625 174 191 64
2020-04-04 12:02:41 GMT 56.046055 37.678555 3,250 174 198 -128
2020-04-04 12:02:36 GMT 56.051083 37.677696 2,625 174 198 -64
2020-04-04 12:02:31 GMT 56.060532 37.676239 3,250 175 216 -1024
2020-04-04 12:02:25 GMT 56.060532 37.676239 2,625 175 205 -320
2020-04-04 12:02:21 GMT 56.064697 37.675613 2,650 175 208 -256
2020-04-04 12:02:16 GMT 56.070053 37.674782 2,700 174 209 -960
2020-04-04 12:02:11 GMT 56.074684 37.674091 2,775 174 210 -960
2020-04-04 12:02:05 GMT 56.080410 37.673149 2,875 174 211 -1024
2020-04-04 12:02:00 GMT 56.084599 37.672462 2,950 175 213 -1152
2020-04-04 12:01:55 GMT 56.090324 37.671604 3,050 175 214 -896
2020-04-04 12:01:51 GMT 56.094933 37.670918 3,125 175 215 -1024
2020-04-04 12:01:43 GMT 56.101543 37.669888 3,250 175 217 -960
2020-04-04 12:01:40 GMT 56.105347 37.669373 3,300 175 219 -960
2020-04-04 12:01:34 GMT 56.110519 37.668625 3,375 175 221 -960
2020-04-04 12:01:29 GMT 56.117157 37.667709 3,475 175 224 -960
2020-04-04 12:01:24 GMT 56.121689 37.667042 3,550 175 225 -960
2020-04-04 12:01:18 GMT 56.127289 37.666283 3,650 175 227 -960
2020-04-04 12:01:14 GMT 56.131989 37.665684 3,700 174 231 -768
2020-04-04 12:01:10 GMT 56.136978 37.664963 3,750 173 233 -640
2020-04-04 12:01:04 GMT 56.142426 37.663464 3,800 163 240 -704
2020-04-04 12:00:59 GMT 56.147724 37.660446 3,875 149 245 -1088
2020-04-04 12:00:55 GMT 56.151581 37.657055 3,950 146 245 -1152
2020-04-04 12:00:48 GMT 56.158989 37.647141 4,100 137 251 -1216
2020-04-04 12:00:44 GMT 56.161880 37.642323 4,175 136 253 -896
2020-04-04 12:00:37 GMT 56.167465 37.632751 4,275 136 256 -960
2020-04-04 12:00:31 GMT 56.172226 37.624512 4,375 136 256 -1152
2020-04-04 12:00:27 GMT 56.176117 37.617935 4,700 136 257 -1536
2020-04-04 12:00:23 GMT 56.180637 37.610233 4,575 136 259 -896
2020-04-04 12:00:19 GMT 56.183662 37.605000 4,625 136 258 -640
2020-04-04 12:00:16 GMT 56.185272 37.602207 4,650 136 258 -1088
2020-04-04 12:00:13 GMT 56.188225 37.597191 4,725 136 257 -1408
2020-04-04 12:00:09 GMT 56.192642 37.589722 4,875 136 257 -1920
2020-04-04 12:00:06 GMT 56.194016 37.587307 5,000 136 258 -1792
2020-04-04 12:00:03 GMT 56.196899 37.582481 5,025 136 258 -1728
2020-04-04 11:59:57 GMT 56.202576 37.572826 5,225 136 257 -1792
2020-04-04 11:59:53 GMT 56.208195 37.563286 5,375 136 258 -1216
2020-04-04 11:59:46 GMT 56.211685 37.557430 5,475 136 259 -1344
2020-04-04 11:59:42 GMT 56.214752 37.552185 5,850 136 263 -960
2020-04-04 11:59:36 GMT 56.220299 37.542686 5,675 136 262 -1024
2020-04-04 11:59:32 GMT 56.223743 37.536762 5,775 136 267 -576
2020-04-04 11:59:26 GMT 56.229492 37.526882 5,825 136 269 -704
2020-04-04 11:59:22 GMT 56.233749 37.519642 5,875 136 272 -896
2020-04-04 11:59:16 GMT 56.238922 37.510757 5,950 136 277 -896
2020-04-04 11:59:13 GMT 56.248371 37.494534 6,100 136 279 -896
2020-04-04 11:59:05 GMT 56.248371 37.494534 6,100 136 283 -1152
2020-04-04 11:58:56 GMT 56.256985 37.479687 6,350 136 285 -2304
2020-04-04 11:58:53 GMT 56.261265 37.472305 6,525 136 285 -2240
2020-04-04 11:58:50 GMT 56.263733 37.468040 6,625 136 285 -2176
2020-04-04 11:58:45 GMT 56.267807 37.460964 6,775 136 285 -2048
2020-04-04 11:58:39 GMT 56.272949 37.452133 6,950 135 287 -1792
2020-04-04 11:58:34 GMT 56.277603 37.444065 7,075 135 286 -1920
2020-04-04 11:58:29 GMT 56.284973 37.431252 7,350 136 288 -1536
2020-04-04 11:58:24 GMT 56.287354 37.427090 7,400 136 289 -1536
2020-04-04 11:58:14 GMT 56.296783 37.410778 7,675 135 289 -1984
2020-04-04 11:58:05 GMT 56.305573 37.395546 7,950 136 290 -1472
2020-04-04 11:58:02 GMT 56.310104 37.387722 8,075 136 291 -1664
2020-04-04 11:57:53 GMT 56.317223 37.375488 8,275 136 292 -1792
2020-04-04 11:57:47 GMT 56.322739 37.365917 9,475 136 290 -2112
2020-04-04 11:57:44 GMT 56.326538 37.359425 8,900 136 293 -960
2020-04-04 11:57:33 GMT 56.336426 37.342361 8,900 136 292 -960
2020-04-04 11:57:23 GMT 56.349342 37.320213 9,200 136 296 -896
2020-04-04 11:57:13 GMT 56.356743 37.307770 9,250 136 295 -896
2020-04-04 11:57:02 GMT 56.368149 37.288597 9,425 137 298 -1088
2020-04-04 11:56:56 GMT 56.373688 37.279274 9,525 137 299 -1024
2020-04-04 11:56:52 GMT 56.377506 37.272835 9,575 137 299 -896
2020-04-04 11:56:41 GMT 56.396873 37.239964 9,925 135 304 -1088
2020-04-04 11:56:33 GMT 56.396873 37.239964 9,925 135 304 -1088
2020-04-04 11:56:22 GMT 56.408230 37.219963 10,050 135 306 -1024
2020-04-04 11:56:12 GMT 56.418938 37.202110 10,250 141 310 -1664
2020-04-04 11:56:08 GMT 56.422623 37.196793 10,350 142 309 -1792
2020-04-04 11:56:01 GMT 56.430725 37.186306 10,575 148 309 -1856
2020-04-04 11:55:50 GMT 56.444458 37.172657 10,900 152 309 -1856
2020-04-04 11:55:41 GMT 56.456314 37.161171 11,175 151 311 -1600
2020-04-04 11:55:34 GMT 56.466095 37.151642 11,375 151 316 -1856
2020-04-04 11:55:31 GMT 56.469772 37.148037 11,475 151 314 -1792
2020-04-04 11:55:20 GMT 56.482315 37.135704 11,775 151 317 -1728
2020-04-04 11:55:09 GMT 56.496216 37.121861 12,075 150 320 -1728
2020-04-04 11:54:59 GMT 56.509918 37.107906 12,375 149 324 -1600
2020-04-04 11:54:49 GMT 56.522278 37.094254 12,625 146 330 -1472
2020-04-04 11:54:40 GMT 56.535049 37.078194 12,875 142 337 -1216
2020-04-04 11:54:29 GMT 56.547096 37.060406 13,075 139 346 -1280
2020-04-04 11:54:19 GMT 56.559769 37.040489 13,300 139 352 -1856
2020-04-04 11:54:08 GMT 56.572678 37.020180 13,650 139 353 -1856
2020-04-04 11:53:59 GMT 56.584896 37.000923 13,975 139 355 -2048
2020-04-04 11:53:48 GMT 56.597809 36.980667 14,300 139 355 -1984
2020-04-04 11:53:37 GMT 56.610855 36.960068 14,650 139 357 -1984
2020-04-04 11:53:27 GMT 56.623161 36.940643 14,975 138 357 -1984
2020-04-04 11:53:17 GMT 56.635895 36.920502 15,325 138 359 -2048
2020-04-04 11:53:08 GMT 56.648438 36.900673 15,675 138 361 -1984
2020-04-04 11:52:57 GMT 56.667297 36.870716 16,175 138 362 -1984
2020-04-04 11:52:48 GMT 56.673485 36.860905 16,325 138 364 -2048
2020-04-04 11:52:35 GMT 56.690460 36.833897 16,775 138 365 -1984
2020-04-04 11:52:25 GMT 56.702396 36.814919 17,075 138 367 -1984
2020-04-04 11:52:17 GMT 56.712589 36.798618 17,425 138 368 -1920
2020-04-04 11:52:14 GMT 56.715801 36.793568 17,425 138 368 -1920
2020-04-04 11:52:07 GMT 56.726601 36.776466 17,725 139 370 -1984
2020-04-04 11:52:04 GMT 56.728928 36.772747 17,750 139 372 -1984
2020-04-04 11:51:55 GMT 56.743828 36.749180 18,150 139 372 -1728
2020-04-04 11:51:46 GMT 56.753696 36.733673 18,350 139 371 -1216
2020-04-04 11:51:41 GMT 56.762493 36.719765 18,450 139 372 -960
2020-04-04 11:51:35 GMT 56.767056 36.712677 18,500 139 373 -960
2020-04-04 11:51:31 GMT 56.772175 36.704700 18,575 139 374 -1024
2020-04-04 11:51:25 GMT 56.780319 36.691933 18,675 139 376 -960
2020-04-04 11:51:20 GMT 56.788097 36.679893 18,775 139 377 -896
2020-04-04 11:51:15 GMT 56.793457 36.671677 18,825 139 378 -960
2020-04-04 11:51:10 GMT 56.799595 36.662262 18,925 139 380 -1024
2020-04-04 11:51:05 GMT 56.807510 36.650124 19,025 140 381 -960
2020-04-04 11:50:59 GMT 56.814102 36.640003 19,100 139 382 -960
2020-04-04 11:50:54 GMT 56.821430 36.628773 19,200 139 383 -960
2020-04-04 11:50:49 GMT 56.827900 36.618759 19,275 139 383 -896
2020-04-04 11:50:44 GMT 56.835068 36.607685 19,350 139 384 -896
2020-04-04 11:50:38 GMT 56.842209 36.596489 19,425 138 385 -960
2020-04-04 11:50:33 GMT 56.848942 36.585800 19,500 138 386 -960
2020-04-04 11:50:23 GMT 56.862167 36.563957 19,675 136 388 -1216
2020-04-04 11:50:13 GMT 56.875664 36.540260 19,925 134 393 -1984
2020-04-04 11:50:06 GMT 56.885742 36.521645 20,225 134 394 -2176
2020-04-04 11:50:03 GMT 56.888535 36.516411 20,300 134 394 -2176
2020-04-04 11:49:53 GMT 56.901855 36.491776 20,700 134 395 -2304
2020-04-04 11:49:42 GMT 56.914860 36.467697 21,075 134 398 -2304
2020-04-04 11:49:33 GMT 56.928268 36.442680 21,800 134 403 -2368
2020-04-04 11:49:22 GMT 56.941254 36.418438 22,050 134 403 -2368
2020-04-04 11:49:12 GMT 56.954845 36.392742 22,800 134 406 -2304
2020-04-04 11:49:01 GMT 56.968163 36.367580 22,650 134 408 -2240
2020-04-04 11:48:52 GMT 56.981323 36.342773 23,025 134 410 -2304
2020-04-04 11:48:44 GMT 56.992554 36.321598 23,375 134 413 -2304
2020-04-04 11:48:39 GMT 56.998993 36.309643 23,575 134 415 -2368
2020-04-04 11:48:31 GMT 57.008789 36.291363 23,875 134 416 -2496
2020-04-04 11:48:20 GMT 57.023163 36.264839 24,275 135 419 -2368
2020-04-04 11:48:10 GMT 57.037430 36.238846 24,700 135 422 -2432
2020-04-04 11:48:01 GMT 57.050465 36.215103 25,075 135 425 -2368
2020-04-04 11:47:50 GMT 57.065224 36.188080 25,500 135 427 -2624
2020-04-04 11:47:39 GMT 57.079651 36.161671 25,925 135 430 -2496
2020-04-04 11:47:29 GMT 57.093712 36.135895 26,350 135 432 -2496
2020-04-04 11:47:19 GMT 57.109314 36.107342 26,825 135 435 -2624
2020-04-04 11:47:08 GMT 57.124100 36.080048 27,250 134 438 -2496
2020-04-04 11:46:59 GMT 57.137520 36.055267 27,625 134 441 -2560
2020-04-04 11:46:49 GMT 57.151932 36.028633 28,150 135 445 -2496
2020-04-04 11:46:36 GMT 57.169556 35.996277 28,550 135 446 -2048
2020-04-04 11:46:29 GMT 57.182510 35.972500 28,850 135 447 -1728
2020-04-04 11:46:18 GMT 57.197338 35.945316 29,125 135 448 -1024
2020-04-04 11:46:08 GMT 57.211258 35.919800 29,275 135 449 -960
2020-04-04 11:45:58 GMT 57.226524 35.891712 29,450 134 450 -832
2020-04-04 11:45:48 GMT 57.241608 35.863804 29,600 134 450 -960
2020-04-04 11:45:37 GMT 57.256439 35.836288 29,750 134 451 -832
2020-04-04 11:45:27 GMT 57.271683 35.807812 29,900 134 453 -896
2020-04-04 11:45:16 GMT 57.286972 35.779209 30,050 134 454 -1088
2020-04-04 11:45:07 GMT 57.301708 35.751549 30,225 134 456 -960
2020-04-04 11:44:56 GMT 57.317047 35.722733 30,375 134 456 -960
2020-04-04 11:44:46 GMT 57.332386 35.693871 30,550 134 454 -896
2020-04-04 11:44:35 GMT 57.347214 35.666084 30,825 134 453 -896
2020-04-04 11:44:26 GMT 57.362785 35.636902 30,850 134 454 -896
2020-04-04 11:44:14 GMT 57.377960 35.608372 30,975 134 455 -320
2020-04-04 11:44:05 GMT 57.392395 35.581284 30,975 134 455 0
2020-04-04 11:43:54 GMT 57.407913 35.552189 30,975 134 455 0
2020-04-04 11:43:45 GMT 57.422791 35.524204 31,000 134 454 -64
2020-04-04 11:43:34 GMT 57.437805 35.495880 31,000 134 455 0
2020-04-04 11:43:24 GMT 57.453003 35.467216 31,000 134 456 -64
2020-04-04 11:43:13 GMT 57.468338 35.438206 31,000 134 457 -192
2020-04-04 11:43:04 GMT 57.483856 35.408936 31,025 134 456 0
2020-04-04 11:42:53 GMT 57.498322 35.381557 31,025 134 457 0
2020-04-04 11:42:43 GMT 57.513519 35.352715 31,000 134 458 0
2020-04-04 11:42:32 GMT 57.528790 35.323792 31,000 134 459 128
2020-04-04 11:42:23 GMT 57.544693 35.293751 31,000 134 460 -128
2020-04-04 11:42:12 GMT 57.558815 35.266911 31,000 134 460 64
2020-04-04 11:42:02 GMT 57.574131 35.237850 31,000 134 460 -64
2020-04-04 11:41:52 GMT 57.589310 35.208965 31,000 134 461 0
2020-04-04 11:41:42 GMT 57.604576 35.179817 31,000 134 461 0
2020-04-04 11:41:30 GMT 57.620911 35.148609 31,000 134 461 64
2020-04-04 11:41:21 GMT 57.635487 35.120724 31,000 134 463 -64
2020-04-04 11:41:10 GMT 57.650524 35.091839 30,975 134 463 64
2020-04-04 11:41:01 GMT 57.665955 35.062008 30,975 133 463 0
2020-04-04 11:40:55 GMT 57.672913 35.048531 30,975 134 464 -128
2020-04-04 11:40:50 GMT 57.680832 35.033340 31,000 135 463 -64
2020-04-04 11:40:40 GMT 57.696533 35.004585 31,000 136 461 -64
2020-04-04 11:40:32 GMT 57.710949 34.979851 31,000 138 461 64
2020-04-04 11:40:29 GMT 57.713379 34.976006 30,975 139 460 -64
2020-04-04 11:40:25 GMT 57.719189 34.966648 31,000 139 461 -64
2020-04-04 11:40:20 GMT 57.729336 34.950897 31,025 141 459 -192
2020-04-04 11:40:16 GMT 57.734299 34.943523 31,025 142 458 0
2020-04-04 11:40:10 GMT 57.745678 34.927094 31,025 143 458 0
2020-04-04 11:40:07 GMT 57.751099 34.919601 31,025 143 457 0
2020-04-04 11:39:59 GMT 57.763554 34.902557 31,025 143 458 0
2020-04-04 11:39:55 GMT 57.771240 34.892048 31,025 143 458 -128
2020-04-04 11:39:48 GMT 57.781631 34.877781 31,025 143 458 0
2020-04-04 11:39:44 GMT 57.788830 34.867950 31,025 143 458 128
2020-04-04 11:39:39 GMT 57.799255 34.853683 31,000 143 459 128
2020-04-04 11:39:28 GMT 57.816010 34.830734 31,000 143 460 -64
2020-04-04 11:39:14 GMT 57.839630 34.798222 31,000 143 460 0
2020-04-04 11:39:07 GMT 57.851578 34.781738 31,000 143 460 -64
2020-04-04 11:39:02 GMT 57.860847 34.769073 31,000 143 460 -192
2020-04-04 11:38:58 GMT 57.869019 34.757729 31,025 143 459 -64
2020-04-04 11:38:47 GMT 57.886452 34.733643 31,025 143 458 64
2020-04-04 11:38:42 GMT 57.895947 34.720459 31,000 143 459 128
2020-04-04 11:38:33 GMT 57.910767 34.699787 30,975 143 460 -64
2020-04-04 11:38:27 GMT 57.921181 34.685303 31,000 143 460 -128
2020-04-04 11:38:15 GMT 57.940247 34.658588 31,025 143 460 0
2020-04-04 11:38:12 GMT 57.945511 34.651146 31,000 143 460 -64
2020-04-04 11:38:06 GMT 57.956047 34.636322 31,025 143 460 -64
2020-04-04 11:38:03 GMT 57.961632 34.628448 31,025 143 459 -128
2020-04-04 11:37:56 GMT 57.973225 34.612244 31,025 143 460 64
2020-04-04 11:37:45 GMT 57.992172 34.585876 31,025 143 461 64
2020-04-04 11:37:31 GMT 58.015823 34.553066 31,025 143 462 64
2020-04-04 11:37:25 GMT 58.025921 34.539093 31,025 143 460 0
2020-04-04 11:37:15 GMT 58.043983 34.514191 31,025 144 461 -64
2020-04-04 11:37:04 GMT 58.061874 34.489716 31,050 143 461 -64
2020-04-04 11:36:54 GMT 58.079453 34.465530 31,050 143 461 0
2020-04-04 11:36:45 GMT 58.096802 34.441517 31,025 143 463 128
2020-04-04 11:36:34 GMT 58.113907 34.417511 31,000 142 463 0
2020-04-04 11:36:19 GMT 58.139099 34.380650 31,025 141 463 0
2020-04-04 11:36:13 GMT 58.148960 34.365784 31,025 141 463 64
2020-04-04 11:36:04 GMT 58.166786 34.338684 31,000 141 463 0
2020-04-04 11:35:53 GMT 58.182678 34.314644 31,000 141 463 64
2020-04-04 11:35:43 GMT 58.200165 34.288063 31,000 141 463 64
2020-04-04 11:35:31 GMT 58.219997 34.257935 30,975 141 463 0
2020-04-04 11:35:01 GMT 58.268509 34.184135 31,000 141 459 -64
2020-04-04 11:34:47 GMT 58.292107 34.148071 31,000 141 459 0
2020-04-04 11:32:04 GMT 58.560017 33.735352 31,000 140 456 -64
2020-04-04 11:31:55 GMT 58.575211 33.711723 31,000 140 456 -64
2020-04-04 11:31:50 GMT 58.585152 33.696167 31,000 140 457 0
2020-04-04 11:31:34 GMT 58.608673 33.659630 31,000 140 457 0
2020-04-04 11:31:18 GMT 58.635616 33.617981 31,000 141 458 -128
2020-04-04 11:31:07 GMT 58.653259 33.590881 31,000 141 458 128
2020-04-04 11:30:59 GMT 58.666805 33.570007 30,975 141 459 -64
2020-04-04 11:30:47 GMT 58.686905 33.538780 31,025 140 459 -192
2020-04-04 11:30:42 GMT 58.694595 33.526730 31,025 140 458 -64
2020-04-04 11:30:34 GMT 58.708008 33.505554 31,025 140 459 0
2020-04-04 11:30:28 GMT 58.717083 33.490906 31,025 139 460 64
2020-04-04 11:30:23 GMT 58.724857 33.478271 31,000 139 459 64
2020-04-04 11:30:19 GMT 58.733421 33.464264 31,000 139 460 0
2020-04-04 11:30:14 GMT 58.739227 33.454697 31,025 139 460 0
2020-04-04 11:30:08 GMT 58.749756 33.437420 30,975 139 460 128
2020-04-04 11:30:04 GMT 58.756348 33.426525 31,000 139 461 64
2020-04-04 11:29:57 GMT 58.767014 33.408894 30,975 139 461 64
2020-04-04 11:29:53 GMT 58.772854 33.399353 30,975 139 462 128
2020-04-04 11:29:47 GMT 58.783035 33.382488 30,975 139 462 128
2020-04-04 11:29:43 GMT 58.790775 33.369690 30,975 139 463 0
2020-04-04 11:29:38 GMT 58.798737 33.356506 30,975 139 463 0
2020-04-04 11:29:33 GMT 58.806648 33.343414 30,975 139 462 0
2020-04-04 11:29:27 GMT 58.815353 33.328949 30,975 139 461 64
2020-04-04 11:29:23 GMT 58.822289 33.317413 30,975 139 461 0
2020-04-04 11:29:17 GMT 58.831509 33.302124 30,975 139 461 -64
2020-04-04 11:29:07 GMT 58.848125 33.274555 31,000 139 461 -128
2020-04-04 11:28:57 GMT 58.864468 33.247566 31,000 139 460 0
2020-04-04 11:28:46 GMT 58.882668 33.217354 31,000 139 460 0
2020-04-04 11:28:36 GMT 58.897659 33.192535 31,000 139 461 -64
2020-04-04 11:28:30 GMT 58.908005 33.175323 31,025 139 461 -64
2020-04-04 11:28:27 GMT 58.914597 33.164337 31,025 139 460 -64
2020-04-04 11:28:16 GMT 58.930244 33.138271 31,025 139 462 0
2020-04-04 11:28:11 GMT 58.937988 33.125336 31,025 139 462 64
2020-04-04 11:28:05 GMT 58.947647 33.109222 31,025 139 462 64
2020-04-04 11:28:00 GMT 58.956848 33.093842 31,000 139 463 128
2020-04-04 11:27:55 GMT 58.963669 33.082485 31,000 139 463 128
2020-04-04 11:27:50 GMT 58.971909 33.068657 31,000 139 464 64
2020-04-04 11:27:45 GMT 58.980515 33.054291 31,000 139 465 0
2020-04-04 11:27:41 GMT 58.987473 33.042664 31,000 139 464 -128
2020-04-04 11:27:36 GMT 58.996399 33.027649 31,025 139 464 -192
2020-04-04 11:27:31 GMT 59.003815 33.015198 31,025 139 464 -64
2020-04-04 11:27:24 GMT 59.014984 32.996429 31,025 139 463 0
2020-04-04 11:27:20 GMT 59.021114 32.986164 31,025 139 463 64
2020-04-04 11:27:15 GMT 59.029541 32.971985 31,025 139 464 64
2020-04-04 11:27:10 GMT 59.037781 32.958134 31,000 139 464 128
2020-04-04 11:27:04 GMT 59.046158 32.943970 31,000 139 465 192
2020-04-04 11:27:00 GMT 59.053284 32.931992 30,975 139 465 128
2020-04-04 11:26:54 GMT 59.062500 32.916321 30,975 138 465 64
2020-04-04 11:26:49 GMT 59.071747 32.900757 30,975 138 466 0
2020-04-04 11:26:44 GMT 59.079346 32.887848 30,975 138 465 0
2020-04-04 11:26:39 GMT 59.087631 32.873840 30,975 138 465 -64
2020-04-04 11:26:34 GMT 59.095734 32.860199 30,975 138 465 -64
2020-04-04 11:26:29 GMT 59.103653 32.846741 30,975 139 465 0
2020-04-04 11:26:23 GMT 59.112396 32.832001 30,975 139 465 64
2020-04-04 11:26:19 GMT 59.119675 32.819641 30,975 139 465 0
2020-04-04 11:26:14 GMT 59.129070 32.803848 30,975 139 465 -128
2020-04-04 11:26:08 GMT 59.136845 32.790684 31,000 139 465 -64
2020-04-04 11:26:03 GMT 59.145905 32.775421 31,000 139 463 0
2020-04-04 11:25:59 GMT 59.152679 32.763885 31,000 138 463 0
2020-04-04 11:25:52 GMT 59.162476 32.747223 31,000 138 463 0
2020-04-04 11:25:48 GMT 59.169895 32.734615 31,000 138 463 -64
2020-04-04 11:25:42 GMT 59.178600 32.719841 31,000 138 463 0
2020-04-04 11:25:38 GMT 59.185863 32.707531 31,000 138 463 0
2020-04-04 11:25:33 GMT 59.195358 32.691334 31,000 138 464 0
2020-04-04 11:25:28 GMT 59.202118 32.679749 31,000 138 464 0
2020-04-04 11:25:23 GMT 59.211609 32.663586 31,000 138 464 -64
2020-04-04 11:25:18 GMT 59.218369 32.652008 31,000 138 464 -64
2020-04-04 11:25:11 GMT 59.228504 32.634605 31,000 138 464 0
2020-04-04 11:25:08 GMT 59.234940 32.623627 31,000 138 464 64
2020-04-04 11:25:02 GMT 59.243820 32.608429 31,000 138 464 64
2020-04-04 11:24:57 GMT 59.252151 32.594055 31,000 138 464 -64
2020-04-04 11:24:51 GMT 59.260532 32.579674 31,000 138 465 -64
2020-04-04 11:24:47 GMT 59.268265 32.566406 31,000 138 465 0
2020-04-04 11:24:42 GMT 59.277107 32.551163 31,000 138 464 64
2020-04-04 11:24:37 GMT 59.284836 32.537842 31,000 138 464 0
2020-04-04 11:24:32 GMT 59.293633 32.522655 31,000 138 464 0
2020-04-04 11:24:26 GMT 59.301174 32.509586 31,000 138 464 -64
2020-04-04 11:24:21 GMT 59.309368 32.495476 31,000 138 462 0
2020-04-04 11:24:16 GMT 59.317200 32.481995 31,000 138 461 0
2020-04-04 11:24:11 GMT 59.325989 32.466888 31,000 138 460 0
2020-04-04 11:24:06 GMT 59.333496 32.453979 31,000 138 459 -64
2020-04-04 11:24:00 GMT 59.342422 32.438599 31,000 138 459 -64
2020-04-04 11:23:56 GMT 59.349728 32.426052 31,025 138 457 0
2020-04-04 11:23:50 GMT 59.358627 32.410767 31,000 138 457 0
2020-04-04 11:23:46 GMT 59.365929 32.398209 31,000 138 458 0
2020-04-04 11:23:41 GMT 59.374821 32.382961 31,000 138 459 -64
2020-04-04 11:23:35 GMT 59.383072 32.368652 31,000 137 459 64
2020-04-04 11:23:30 GMT 59.390762 32.355011 31,000 136 459 0
2020-04-04 11:23:25 GMT 59.398655 32.340435 31,000 136 461 0
2020-04-04 11:23:20 GMT 59.406380 32.325565 31,000 134 461 0
2020-04-04 11:23:14 GMT 59.414612 32.309235 31,000 133 461 64
2020-04-04 11:23:10 GMT 59.421093 32.296017 30,975 132 462 192
2020-04-04 11:23:04 GMT 59.429031 32.279022 30,950 131 463 256
2020-04-04 11:23:00 GMT 59.435989 32.263733 30,950 130 464 448
2020-04-04 11:22:55 GMT 59.442856 32.248077 30,875 129 465 896
2020-04-04 11:22:50 GMT 59.450546 32.229950 30,800 128 466 1024
2020-04-04 11:22:44 GMT 59.456985 32.214092 30,700 127 466 1024
2020-04-04 11:22:39 GMT 59.464108 32.196003 30,625 126 467 1088
2020-04-04 11:22:33 GMT 59.470947 32.178009 30,525 125 467 1152
2020-04-04 11:22:28 GMT 59.478210 32.158024 30,400 124 468 1088
2020-04-04 11:22:24 GMT 59.482864 32.144714 30,350 123 469 960
2020-04-04 11:22:18 GMT 59.489960 32.123840 30,225 122 472 960
2020-04-04 11:22:14 GMT 59.495110 32.107922 30,175 121 473 960
2020-04-04 11:22:09 GMT 59.501301 32.088127 30,075 120 474 1024
2020-04-04 11:22:04 GMT 59.506516 32.070797 30,000 119 473 1088
2020-04-04 11:21:59 GMT 59.512428 32.050152 29,900 118 473 1152
2020-04-04 11:21:52 GMT 59.519085 32.025997 29,750 117 475 1216
2020-04-04 11:21:48 GMT 59.522736 32.012146 29,675 116 477 1408
2020-04-04 11:21:43 GMT 59.528046 31.991272 29,550 115 479 1408
2020-04-04 11:21:38 GMT 59.532539 31.972298 29,450 114 479 1408
2020-04-04 11:21:32 GMT 59.537937 31.948906 29,300 113 478 1472
2020-04-04 11:21:27 GMT 59.541660 31.931667 29,200 112 477 1536
2020-04-04 11:21:22 GMT 59.545944 31.910797 29,075 111 475 1472
2020-04-04 11:21:18 GMT 59.550201 31.889008 28,950 110 474 1472
2020-04-04 11:21:12 GMT 59.553726 31.869965 28,850 108 472 1536
2020-04-04 11:21:08 GMT 59.557491 31.848040 28,700 107 470 1728
2020-04-04 11:21:02 GMT 59.560867 31.827209 28,550 106 470 1920
2020-04-04 11:20:57 GMT 59.563934 31.807251 28,400 105 469 2112
2020-04-04 11:20:51 GMT 59.567093 31.785461 28,175 104 469 2496
2020-04-04 11:20:47 GMT 59.569687 31.765642 27,975 103 470 2880
2020-04-04 11:20:41 GMT 59.572479 31.743196 27,700 102 471 2944
2020-04-04 11:20:37 GMT 59.574715 31.723591 27,475 102 472 2752
2020-04-04 11:20:31 GMT 59.577133 31.701334 27,225 102 473 2368
2020-04-04 11:20:27 GMT 59.579498 31.679810 27,050 102 473 2048
2020-04-04 11:20:21 GMT 59.581970 31.656647 26,875 102 473 1856
2020-04-04 11:20:17 GMT 59.584026 31.637783 26,725 102 472 1792
2020-04-04 11:20:10 GMT 59.586723 31.612970 26,550 102 471 1920
2020-04-04 11:20:06 GMT 59.588680 31.594975 26,400 102 471 1920
2020-04-04 11:20:01 GMT 59.591103 31.572338 26,250 102 470 1792
2020-04-04 11:19:56 GMT 59.593334 31.551786 26,100 101 469 1856
2020-04-04 11:19:50 GMT 59.595795 31.528839 25,925 101 469 1984
2020-04-04 11:19:46 GMT 59.597763 31.510071 25,750 101 467 2112
2020-04-04 11:19:40 GMT 59.600365 31.485868 25,550 101 467 1984
2020-04-04 11:19:35 GMT 59.602367 31.467117 25,425 101 466 1920
2020-04-04 11:19:30 GMT 59.604767 31.444244 25,225 101 465 1984
2020-04-04 11:19:26 GMT 59.606789 31.425159 25,075 101 464 1984
2020-04-04 11:19:19 GMT 59.609398 31.400347 24,900 101 463 1856
2020-04-04 11:19:15 GMT 59.611221 31.382996 24,775 101 462 1792
2020-04-04 11:19:09 GMT 59.613831 31.358276 24,600 101 460 1792
2020-04-04 11:19:05 GMT 59.615635 31.340963 24,450 101 459 1984
2020-04-04 11:18:59 GMT 59.618008 31.318518 24,250 101 459 2240
2020-04-04 11:18:54 GMT 59.620193 31.297577 24,075 101 458 1984
2020-04-04 11:18:49 GMT 59.622383 31.276371 23,925 101 457 1984
2020-04-04 11:18:44 GMT 59.624451 31.256744 23,750 101 456 2240
2020-04-04 11:18:39 GMT 59.626804 31.234035 23,525 101 455 2432
2020-04-04 11:18:35 GMT 59.628807 31.214905 23,325 101 455 2304
2020-04-04 11:18:29 GMT 59.631184 31.192268 23,125 101 453 1856
2020-04-04 11:18:24 GMT 59.633102 31.173615 23,000 101 451 1536
2020-04-04 11:18:18 GMT 59.635464 31.150692 22,900 101 446 1152
2020-04-04 11:18:14 GMT 59.637280 31.133549 22,800 101 444 1408
2020-04-04 11:18:08 GMT 59.639793 31.109018 22,650 101 440 1920
2020-04-04 11:18:03 GMT 59.641525 31.092499 22,500 101 439 2240
2020-04-04 11:17:58 GMT 59.643799 31.070473 22,250 101 438 2688
2020-04-04 11:17:53 GMT 59.645645 31.052490 22,050 101 438 3008
2020-04-04 11:17:48 GMT 59.647934 31.030518 21,750 101 439 2816
2020-04-04 11:17:44 GMT 59.649757 31.012415 21,550 101 439 2688
2020-04-04 11:17:38 GMT 59.651962 30.991241 21,300 101 439 2304
2020-04-04 11:17:33 GMT 59.654022 30.971191 21,125 101 437 1920
2020-04-04 11:17:27 GMT 59.656181 30.949718 20,975 101 434 1472
2020-04-04 11:17:21 GMT 59.658417 30.927650 20,875 101 431 1088
2020-04-04 11:17:17 GMT 59.660091 30.911171 20,800 101 426 1344
2020-04-04 11:17:12 GMT 59.661816 30.894028 20,675 101 423 1792
2020-04-04 11:17:07 GMT 59.664097 30.871298 20,475 101 420 2368
2020-04-04 11:16:56 GMT 59.668007 30.832750 20,000 101 419 3264
2020-04-04 11:16:46 GMT 59.671829 30.794861 19,400 101 420 3328
2020-04-04 11:16:36 GMT 59.675674 30.756866 18,875 101 421 3008
2020-04-04 11:16:26 GMT 59.679596 30.718151 18,400 101 417 2368
2020-04-04 11:16:15 GMT 59.683456 30.679321 18,050 101 412 1792
2020-04-04 11:16:06 GMT 59.686996 30.643332 17,750 100 406 2176
2020-04-04 11:15:55 GMT 59.690735 30.604889 17,275 100 402 2944
2020-04-04 11:15:45 GMT 59.694260 30.568176 16,775 100 400 3072
2020-04-04 11:15:35 GMT 59.697739 30.531921 16,275 100 398 2944
2020-04-04 11:15:24 GMT 59.701218 30.495209 15,775 100 395 3008
2020-04-04 11:15:14 GMT 59.704594 30.459499 15,250 100 392 3200
2020-04-04 11:15:04 GMT 59.707855 30.423985 14,775 100 388 2752
2020-04-04 11:14:54 GMT 59.711159 30.388088 14,250 100 385 3392
2020-04-04 11:14:44 GMT 59.714447 30.352203 13,600 100 384 3904
2020-04-04 11:14:34 GMT 59.717628 30.318098 13,000 100 383 3328
2020-04-04 11:14:23 GMT 59.720886 30.282772 12,475 100 378 2752
2020-04-04 11:14:13 GMT 59.724197 30.247650 12,000 100 371 2752
2020-04-04 11:14:03 GMT 59.727356 30.214508 11,475 100 366 3520
2020-04-04 11:13:52 GMT 59.730698 30.180084 10,875 101 361 2752
2020-04-04 11:13:42 GMT 59.733994 30.148224 10,500 102 351 1728
2020-04-04 11:13:32 GMT 59.737610 30.116364 10,250 103 336 1536
2020-04-04 11:13:22 GMT 59.741684 30.085693 9,975 110 319 1728
2020-04-04 11:13:12 GMT 59.747910 30.060059 9,675 126 305 1984
2020-04-04 11:13:01 GMT 59.757618 30.038610 9,300 140 287 2496
2020-04-04 11:12:51 GMT 59.768463 30.023621 8,800 155 274 2432
2020-04-04 11:12:41 GMT 59.780800 30.015785 8,500 175 258 1088
2020-04-04 11:12:31 GMT 59.792625 30.016258 8,325 194 245 1152
2020-04-04 11:12:20 GMT 59.803986 30.024405 8,150 214 234 1152
2020-04-04 11:12:10 GMT 59.812454 30.038635 7,950 235 227 1408
2020-04-04 11:12:00 GMT 59.817810 30.057268 7,725 254 217 2304
2020-04-04 11:11:50 GMT 59.819672 30.076683 7,150 273 208 4352
2020-04-04 11:11:39 GMT 59.818176 30.096588 6,325 287 211 4736
2020-04-04 11:11:30 GMT 59.815430 30.114990 5,500 287 215 4160

Making use of Plane Finder data

You are free to use the raw flight data, aircraft information and images provided in this report for your own purposes provided the data is correctly attributed to Plane Finder. We ask that you please credit Plane Finder and link to planefinder.net in close proximity to the content.

Optionally one of the following logos (no smaller then 150x24px) can be used and must link to planefinder.net

Embedding the Plane Finder map

You are welcome to embed the Plane Finder playback map on your website to offer visitors a more interactive experience. We suggest using the following HTML code:

<iframe src="//planefinder.net/data/report/SU43-VQ-BEH-7700-squawk-2020-04-04/map" width="800" height="600" seamless="seamless"></iframe>

Where our data comes from

Plane Finder has a global network of data feeds and antenna radars that receive data broadcast directly from aircraft. The primary technologies used are ADS-B and MLAT. We also show feeds from the FAA and a FLARM glider feed.

Click here to find out more about the Plane Finder network.

How we collect our data